Time;durP1;ratioP1;P1;durP2;ratioP2;P2;SDS_P1;SDS_P2;PMS_P1;PMS_P2;Temp;Humidity;BMP_temperature;BMP_pressure;BME280_temperature;BME280_humidity;BME280_pressure;Samples;Min_cycle;Max_cycle;Signal;HPM_P1;HPM_P2
2023/01/12 00:00:42;;;;;;;12.13;2.97;;;8.80;99.90;;;;;;5111699;28;20047;-85
2023/01/12 00:03:14;;;;;;;14.57;5.77;;;7.60;99.90;;;;;;5130752;28;20130;-84
2023/01/12 00:05:39;;;;;;;17.47;5.43;;;8.20;99.90;;;;;;5113726;28;20041;-84
2023/01/12 00:08:20;;;;;;;25.17;9.03;;;7.20;99.90;;;;;;5090888;28;20104;-84
2023/01/12 00:10:55;;;;;;;15.07;3.43;;;8.90;99.90;;;;;;5109916;28;20082;-85
2023/01/12 00:13:21;;;;;;;10.00;2.40;;;6.50;99.90;;;;;;5085253;22;20056;-85
2023/01/12 00:18:31;;;;;;;;;;;7.90;99.90;;;;;;5068510;28;20044;-84
2023/01/12 00:20:56;;;;;;;16.33;3.67;;;8.30;99.90;;;;;;5070111;28;20268;-85
2023/01/12 00:23:35;;;;;;;16.27;4.13;;;8.90;99.90;;;;;;5051042;28;20075;-84
2023/01/12 00:26:01;;;;;;;15.43;4.73;;;7.20;99.90;;;;;;5067592;28;20048;-84
2023/01/12 00:28:27;;;;;;;21.83;7.13;;;8.90;99.90;;;;;;5052276;28;20052;-85
2023/01/12 00:31:05;;;;;;;16.40;4.73;;;8.80;99.90;;;;;;5056541;28;20036;-86
2023/01/12 00:33:41;;;;;;;31.10;12.03;;;9.10;99.90;;;;;;5083290;28;20051;-85
2023/01/12 00:36:12;;;;;;;19.77;5.30;;;9.00;99.90;;;;;;5055350;28;20144;-85
2023/01/12 00:38:53;;;;;;;15.57;5.00;;;9.10;99.90;;;;;;5037394;28;20053;-84
2023/01/12 00:47:01;;;;;;;16.53;4.60;;;9.30;99.90;;;;;;4972783;28;20125;-85
2023/01/12 00:49:27;;;;;;;24.30;8.67;;;8.30;99.90;;;;;;4999944;28;20148;-85
2023/01/12 00:52:07;;;;;;;16.97;5.30;;;8.50;99.90;;;;;;5016623;28;20053;-85
2023/01/12 00:54:50;;;;;;;18.13;5.73;;;7.60;99.90;;;;;;5017318;28;20049;-85
2023/01/12 00:57:18;;;;;;;23.95;6.05;;;8.10;99.90;;;;;;5015874;28;20097;-85
2023/01/12 00:59:44;;;;;;;17.83;4.27;;;7.40;99.90;;;;;;5017685;28;20059;-85
2023/01/12 01:02:30;;;;;;;17.23;4.83;;;9.00;99.90;;;;;;5017032;28;20140;-86
2023/01/12 01:04:56;;;;;;;14.67;4.10;;;8.80;99.90;;;;;;5016552;28;20042;-85
2023/01/12 01:07:21;;;;;;;17.73;4.00;;;7.40;99.90;;;;;;5041950;28;20042;-86
2023/01/12 01:09:56;;;;;;;18.60;4.10;;;6.70;99.90;;;;;;5020060;28;20041;-85
2023/01/12 01:12:22;;;;;;;17.23;4.30;;;8.50;99.90;;;;;;5016593;28;20045;-85
2023/01/12 01:15:07;;;;;;;16.23;4.10;;;9.30;99.90;;;;;;5033711;28;20061;-85
2023/01/12 01:17:48;;;;;;;15.57;4.10;;;7.50;99.90;;;;;;5017439;28;20053;-85
2023/01/12 01:20:14;;;;;;;18.90;4.37;;;8.40;99.90;;;;;;5016082;28;20489;-85
2023/01/12 01:22:40;;;;;;;24.50;5.97;;;7.70;99.90;;;;;;5017144;28;20045;-85
2023/01/12 01:25:06;;;;;;;14.33;3.77;;;7.40;99.90;;;;;;5016526;28;20053;-85
2023/01/12 01:27:50;;;;;;;15.53;4.40;;;7.60;99.90;;;;;;5016692;28;20052;-85
2023/01/12 01:30:16;;;;;;;15.77;3.65;;;9.30;99.90;;;;;;5034592;28;20037;-85
2023/01/12 01:32:41;;;;;;;14.00;3.97;;;7.60;99.90;;;;;;5015993;28;20198;-85
2023/01/12 01:35:07;;;;;;;17.50;5.40;;;7.60;99.90;;;;;;5034621;28;20457;-85
2023/01/12 01:37:45;;;;;;;19.40;5.30;;;7.60;99.90;;;;;;5016254;28;20124;-84
2023/01/12 01:40:11;;;;;;;20.10;4.93;;;8.20;99.90;;;;;;5015623;28;20488;-85
2023/01/12 01:42:39;;;;;;;20.70;5.33;;;7.50;99.90;;;;;;5053248;22;20112;-85
2023/01/12 01:45:25;;;;;;;16.20;4.67;;;7.60;99.90;;;;;;5042503;28;20052;-84
2023/01/12 01:47:59;;;;;;;20.90;5.93;;;8.90;99.90;;;;;;5073988;22;20526;-85
2023/01/12 01:50:45;;;;;;;18.42;4.70;;;7.60;99.90;;;;;;5093466;28;20051;-85
2023/01/12 01:53:33;;;;;;;20.90;5.30;;;7.60;99.90;;;;;;5093743;28;20078;-85
2023/01/12 01:56:24;;;;;;;22.47;5.40;;;6.60;99.90;;;;;;5095030;28;20044;-85
2023/01/12 01:59:19;;;;;;;19.60;5.73;;;7.70;99.90;;;;;;5094835;28;20467;-85
2023/01/12 02:01:45;;;;;;;21.40;5.13;;;8.80;99.90;;;;;;5073526;28;20044;-85
2023/01/12 02:04:26;;;;;;;20.13;5.53;;;9.00;99.90;;;;;;5097797;28;20094;-85
2023/01/12 02:06:55;;;;;;;19.27;5.60;;;7.00;99.90;;;;;;5076214;28;20044;-85
2023/01/12 02:09:30;;;;;;;20.43;5.10;;;8.80;99.90;;;;;;5075034;28;20097;-84
2023/01/12 02:18:00;;;;;;;18.57;5.60;;;7.20;99.90;;;;;;5076291;28;20049;-85
2023/01/12 02:21:24;;;;;;;17.83;6.63;;;7.60;99.90;;;;;;5108324;28;20087;-84
2023/01/12 02:24:24;;;;;;;17.77;6.37;;;7.70;99.90;;;;;;5074867;28;20115;-85
2023/01/12 02:27:25;;;;;;;19.83;6.73;;;7.70;99.90;;;;;;5075534;28;20043;-85
2023/01/12 02:30:27;;;;;;;17.10;7.07;;;7.70;99.90;;;;;;5074728;28;20039;-85
2023/01/12 02:33:39;;;;;;;16.83;6.93;;;7.50;99.90;;;;;;5093922;28;20047;-85
2023/01/12 02:36:36;;;;;;;19.73;7.20;;;7.70;99.90;;;;;;4994036;28;20042;-85
2023/01/12 02:39:25;;;;;;;21.33;7.13;;;7.80;99.90;;;;;;4994844;28;20045;-85
2023/01/12 02:45:49;;;;;;;18.17;6.53;;;7.50;99.90;;;;;;5071458;28;20491;-85
2023/01/12 02:48:39;;;;;;;23.00;6.50;;;7.30;99.90;;;;;;5090766;28;20056;-86
2023/01/12 02:51:28;;;;;;;18.43;6.70;;;7.60;99.90;;;;;;5074575;28;20450;-86
2023/01/12 02:54:11;;;;;;;17.57;6.67;;;7.60;99.90;;;;;;5082685;28;20050;-86
2023/01/12 02:56:55;;;;;;;19.83;6.60;;;7.90;99.90;;;;;;5147795;22;21179;-85
2023/01/12 02:59:49;;;;;;;22.67;6.82;;;7.40;99.90;;;;;;5054383;28;20043;-85
2023/01/12 03:02:30;;;;;;;21.30;6.83;;;6.60;99.90;;;;;;5071069;28;20139;-85
2023/01/12 03:04:55;;;;;;;19.33;6.30;;;8.60;99.90;;;;;;5053860;28;20135;-85
2023/01/12 03:07:46;;;;;;;20.80;6.97;;;7.70;99.90;;;;;;5054408;28;20076;-85
2023/01/12 03:10:36;;;;;;;19.00;6.30;;;7.60;99.90;;;;;;5054357;28;20044;-84
2023/01/12 03:13:23;;;;;;;20.00;6.23;;;7.70;99.90;;;;;;5073289;28;20052;-85
2023/01/12 03:16:08;;;;;;;17.80;6.20;;;8.80;99.90;;;;;;5072813;28;20484;-85
2023/01/12 03:18:59;;;;;;;15.57;5.73;;;7.40;99.90;;;;;;5054088;28;20076;-85
2023/01/12 03:21:52;;;;;;;16.30;6.83;;;7.70;99.90;;;;;;5054567;28;20174;-85
2023/01/12 03:24:39;;;;;;;19.17;6.37;;;7.60;99.90;;;;;;5072017;28;20431;-85
2023/01/12 03:27:28;;;;;;;18.30;6.93;;;9.10;99.90;;;;;;5071133;28;20136;-84
2023/01/12 03:30:07;;;;;;;21.93;7.10;;;7.90;99.90;;;;;;5028050;28;20138;-85
2023/01/12 03:32:34;;;;;;;18.97;6.97;;;8.00;99.90;;;;;;5073055;28;20048;-85
2023/01/12 03:35:07;;;;;;;20.57;7.10;;;9.30;99.90;;;;;;5056360;28;20047;-85
2023/01/12 03:37:55;;;;;;;18.98;6.90;;;6.90;99.90;;;;;;5054549;28;20052;-84
2023/01/12 03:40:39;;;;;;;16.50;6.83;;;7.80;99.90;;;;;;5057839;28;20036;-84
2023/01/12 03:43:29;;;;;;;19.67;7.18;;;9.30;99.90;;;;;;5074281;28;20078;-84
2023/01/12 03:46:21;;;;;;;17.83;6.50;;;7.90;99.90;;;;;;5071674;28;20765;-84
2023/01/12 03:49:44;;;;;;;18.03;6.07;;;7.80;99.90;;;;;;5054528;28;20128;-84
2023/01/12 03:52:11;;;;;;;17.67;5.63;;;7.20;99.90;;;;;;4974551;28;20379;-85
2023/01/12 03:54:45;;;;;;;18.90;5.90;;;7.90;99.90;;;;;;5046906;28;20131;-85
2023/01/12 03:57:14;;;;;;;16.75;5.40;;;6.70;99.90;;;;;;5071123;28;20052;-84
2023/01/12 03:59:56;;;;;;;15.53;5.53;;;9.00;99.90;;;;;;5054081;28;20385;-84
2023/01/12 04:02:21;;;;;;;15.30;5.70;;;8.00;99.90;;;;;;5110122;22;20063;-84
2023/01/12 04:04:47;;;;;;;16.20;5.30;;;7.90;99.90;;;;;;5095685;28;20039;-85
2023/01/12 04:07:13;;;;;;;14.90;5.00;;;7.90;99.90;;;;;;5099108;28;20039;-85
2023/01/12 04:09:38;;;;;;;14.30;4.90;;;7.90;99.90;;;;;;5113334;28;20044;-84
2023/01/12 04:12:10;;;;;;;13.97;5.40;;;7.90;99.90;;;;;;5109022;28;20040;-84
2023/01/12 04:14:56;;;;;;;13.83;5.03;;;8.00;99.90;;;;;;5097908;28;20064;-84
2023/01/12 04:17:24;;;;;;;14.93;5.37;;;8.30;99.90;;;;;;5097488;28;20051;-84
2023/01/12 04:20:03;;;;;;;14.63;5.10;;;7.70;99.90;;;;;;5115078;28;20039;-84
2023/01/12 04:22:43;;;;;;;13.50;4.67;;;7.90;99.90;;;;;;5097513;28;20051;-84
2023/01/12 04:25:27;;;;;;;12.60;4.53;;;9.00;99.90;;;;;;5116195;28;20075;-84
2023/01/12 04:27:55;;;;;;;12.98;4.35;;;7.90;99.90;;;;;;5097736;28;20079;-84
2023/01/12 04:30:36;;;;;;;12.63;3.60;;;9.00;99.90;;;;;;5114681;28;20092;-84
2023/01/12 04:33:08;;;;;;;11.70;3.97;;;8.20;99.90;;;;;;5098007;28;20044;-84
2023/01/12 04:35:39;;;;;;;10.93;3.50;;;9.20;99.90;;;;;;5115454;28;20047;-85
2023/01/12 04:38:06;;;;;;;11.17;3.37;;;7.90;99.90;;;;;;5116370;28;20066;-84
2023/01/12 04:40:38;;;;;;;10.87;3.43;;;7.90;99.90;;;;;;5101584;28;20052;-84
2023/01/12 04:43:06;;;;;;;11.77;2.90;;;6.90;99.90;;;;;;5100210;28;20048;-85
2023/01/12 04:45:42;;;;;;;11.17;2.83;;;9.50;99.90;;;;;;5097523;28;20036;-85
2023/01/12 04:48:11;;;;;;;11.47;3.20;;;8.90;99.90;;;;;;5097668;28;20044;-84
2023/01/12 04:50:45;;;;;;;11.80;3.00;;;9.60;99.90;;;;;;5096966;28;20054;-84
2023/01/12 04:53:23;;;;;;;12.30;2.83;;;9.40;99.90;;;;;;5097493;28;20044;-84
2023/01/12 04:56:08;;;;;;;11.10;2.67;;;8.80;99.90;;;;;;5116130;28;20042;-85
2023/01/12 04:58:55;;;;;;;9.90;2.47;;;7.90;99.90;;;;;;5097700;28;20093;-84
2023/01/12 05:01:21;;;;;;;8.93;3.03;;;9.40;99.90;;;;;;5096898;28;20052;-84
2023/01/12 05:03:59;;;;;;;10.73;2.78;;;7.20;99.90;;;;;;5112667;28;20047;-84
2023/01/12 05:06:28;;;;;;;8.77;2.40;;;8.20;99.90;;;;;;5111345;28;20054;-84
2023/01/12 05:12:01;;;;;;;8.60;2.60;;;8.10;99.90;;;;;;5115342;28;20079;-84
2023/01/12 05:14:45;;;;;;;11.17;2.70;;;7.90;99.90;;;;;;5097874;28;20043;-85
2023/01/12 05:17:10;;;;;;;8.98;2.42;;;7.00;99.90;;;;;;5105594;28;20043;-84
2023/01/12 05:19:55;;;;;;;10.37;2.40;;;7.90;99.90;;;;;;5097302;28;20390;-85
2023/01/12 05:22:21;;;;;;;12.00;2.53;;;8.20;99.90;;;;;;5096504;28;20093;-85
2023/01/12 05:24:46;;;;;;;7.67;2.20;;;8.50;99.90;;;;;;5079730;22;20052;-84
2023/01/12 05:27:12;;;;;;;10.53;2.40;;;7.90;99.90;;;;;;5053207;28;20140;-85
2023/01/12 05:29:38;;;;;;;8.97;2.33;;;9.30;99.90;;;;;;5053472;28;20037;-85
2023/01/12 05:32:03;;;;;;;11.53;2.33;;;8.60;99.90;;;;;;5054497;28;20163;-85
2023/01/12 05:34:29;;;;;;;10.07;2.30;;;9.20;99.90;;;;;;5053226;28;20106;-84
2023/01/12 05:36:55;;;;;;;10.40;2.50;;;7.80;99.90;;;;;;5054110;28;20036;-85
2023/01/12 05:39:20;;;;;;;12.00;2.30;;;7.80;99.90;;;;;;5052576;28;20045;-85
2023/01/12 05:44:30;;;;;;;;;;;7.80;99.90;;;;;;5052887;28;20041;-85
2023/01/12 05:46:55;;;;;;;9.80;2.30;;;7.80;99.90;;;;;;5052437;28;19921;-85
2023/01/12 05:49:21;;;;;;;11.63;2.47;;;7.70;99.90;;;;;;5054260;28;20041;-85
2023/01/12 05:51:47;;;;;;;5.03;1.70;;;8.60;99.90;;;;;;5054491;28;20056;-84
2023/01/12 05:54:13;;;;;;;9.60;2.40;;;8.90;99.90;;;;;;5052825;28;20045;-85
2023/01/12 05:56:38;;;;;;;10.17;2.50;;;7.80;99.90;;;;;;5053536;28;20051;-85
2023/01/12 05:59:04;;;;;;;8.80;2.30;;;7.80;99.90;;;;;;5053374;28;20477;-85
2023/01/12 06:01:31;;;;;;;9.20;2.40;;;7.80;99.90;;;;;;5053078;28;20539;-85
2023/01/12 06:03:59;;;;;;;8.67;2.20;;;7.80;99.90;;;;;;5052850;28;20044;-85
2023/01/12 06:06:26;;;;;;;9.13;2.30;;;7.80;99.90;;;;;;5051880;28;20076;-85
2023/01/12 06:08:53;;;;;;;9.70;2.20;;;7.80;99.90;;;;;;5052701;28;20087;-84
2023/01/12 06:14:15;;;;;;;11.53;2.40;;;8.70;99.90;;;;;;4982028;28;20662;-84
2023/01/12 06:16:41;;;;;;;9.43;2.30;;;7.90;99.90;;;;;;5052512;28;20045;-84
2023/01/12 06:19:08;;;;;;;7.87;2.30;;;7.90;99.90;;;;;;5052780;28;20041;-85
2023/01/12 06:21:34;;;;;;;10.03;2.73;;;7.90;99.90;;;;;;5051566;28;20049;-84
2023/01/12 06:23:59;;;;;;;8.30;2.20;;;9.10;99.90;;;;;;5052215;28;20041;-85
2023/01/12 06:26:25;;;;;;;8.50;2.20;;;9.60;99.90;;;;;;5051736;28;20405;-85
2023/01/12 06:28:51;;;;;;;9.53;2.40;;;8.00;99.90;;;;;;5057698;28;20045;-85
2023/01/12 06:31:17;;;;;;;8.57;2.20;;;8.90;99.90;;;;;;5053638;28;20045;-85
2023/01/12 06:33:45;;;;;;;9.37;2.40;;;8.80;99.90;;;;;;5052237;28;20483;-84
2023/01/12 06:36:11;;;;;;;9.03;2.20;;;8.80;99.90;;;;;;5052084;28;20051;-84
2023/01/12 06:38:37;;;;;;;8.97;2.07;;;8.50;99.90;;;;;;5047803;28;20045;-84
2023/01/12 06:41:06;;;;;;;7.47;2.10;;;8.40;99.90;;;;;;5051508;28;20060;-84
2023/01/12 06:43:32;;;;;;;11.17;2.33;;;9.20;99.90;;;;;;5054329;28;20045;-85
2023/01/12 06:45:58;;;;;;;9.27;2.40;;;8.90;99.90;;;;;;5050994;28;20390;-85
2023/01/12 06:48:27;;;;;;;9.17;2.43;;;8.10;99.90;;;;;;5051737;28;20041;-85
2023/01/12 06:51:00;;;;;;;8.83;2.30;;;8.20;99.90;;;;;;5054469;28;20084;-84
2023/01/12 06:53:26;;;;;;;8.68;2.15;;;9.40;99.90;;;;;;5051698;28;20041;-85
2023/01/12 06:55:52;;;;;;;9.53;2.40;;;8.40;99.90;;;;;;5051040;28;20064;-84
2023/01/12 06:58:17;;;;;;;10.43;2.50;;;9.10;99.90;;;;;;5052852;28;20116;-84
2023/01/12 07:00:43;;;;;;;7.63;2.20;;;8.20;99.90;;;;;;5051313;28;20049;-84
2023/01/12 07:03:17;;;;;;;9.27;2.70;;;8.20;99.90;;;;;;5052727;28;20473;-84
2023/01/12 07:05:42;;;;;;;8.40;2.40;;;8.30;99.90;;;;;;5053289;28;20041;-85
2023/01/12 07:08:09;;;;;;;8.27;2.40;;;9.00;99.90;;;;;;5051708;28;20079;-84
2023/01/12 07:10:36;;;;;;;8.37;2.27;;;9.40;99.90;;;;;;5052346;28;20037;-84
2023/01/12 07:13:02;;;;;;;9.20;2.50;;;9.70;99.90;;;;;;5053088;28;20136;-83
2023/01/12 07:15:28;;;;;;;8.37;3.10;;;8.40;99.90;;;;;;5051025;28;20116;-83
2023/01/12 07:17:55;;;;;;;9.00;3.43;;;8.40;99.90;;;;;;5050961;28;20195;-84
2023/01/12 07:20:21;;;;;;;8.23;2.30;;;8.50;99.90;;;;;;5050954;28;20043;-84
2023/01/12 07:22:47;;;;;;;8.13;2.80;;;8.50;99.90;;;;;;5051746;28;20057;-84
2023/01/12 07:25:13;;;;;;;6.17;2.13;;;8.50;99.90;;;;;;5050154;28;20045;-85
2023/01/12 07:27:38;;;;;;;12.90;4.30;;;10.00;99.90;;;;;;5052726;28;20052;-84
2023/01/12 07:30:04;;;;;;;11.50;4.90;;;9.40;99.90;;;;;;5052831;28;20501;-84
2023/01/12 07:32:33;;;;;;;9.83;4.53;;;8.60;99.90;;;;;;5051352;28;20404;-83
2023/01/12 07:34:59;;;;;;;9.70;4.13;;;8.90;99.90;;;;;;5051099;28;20037;-84
2023/01/12 07:37:24;;;;;;;10.17;3.50;;;8.60;99.90;;;;;;5050800;28;20041;-83
2023/01/12 07:39:50;;;;;;;8.27;2.33;;;8.60;99.90;;;;;;5050514;28;20049;-82
2023/01/12 07:42:24;;;;;;;10.13;5.33;;;8.60;99.90;;;;;;5051183;28;20508;-82
2023/01/12 07:44:50;;;;;;;7.60;2.20;;;9.30;99.90;;;;;;5050276;28;20056;-83
2023/01/12 07:47:16;;;;;;;6.90;1.93;;;8.70;99.90;;;;;;5051499;28;20060;-84
2023/01/12 07:49:42;;;;;;;9.40;3.83;;;9.10;99.90;;;;;;5056519;28;20041;-83
2023/01/12 07:52:10;;;;;;;7.57;2.80;;;10.10;99.90;;;;;;5054596;28;20104;-83
2023/01/12 07:54:36;;;;;;;7.20;2.30;;;9.30;99.90;;;;;;5056680;28;20080;-83
2023/01/12 08:00:42;;;;;;;5.83;1.90;;;8.20;99.90;;;;;;5050406;28;20037;-82
2023/01/12 08:03:19;;;;;;;9.40;3.30;;;10.40;99.90;;;;;;5038040;28;20048;-83
2023/01/12 08:09:31;;;;;;;7.97;2.63;;;7.80;99.90;;;;;;5055382;28;20043;-81
2023/01/12 08:12:05;;;;;;;8.93;3.30;;;8.00;99.90;;;;;;5054850;28;20439;-81
2023/01/12 08:14:37;;;;;;;9.20;3.50;;;8.80;99.90;;;;;;5055143;28;20045;-81
2023/01/12 08:17:09;;;;;;;9.87;3.80;;;8.80;99.90;;;;;;5054974;28;20052;-81
2023/01/12 08:19:42;;;;;;;10.13;4.00;;;8.80;99.90;;;;;;5059727;28;20037;-81
2023/01/12 08:22:16;;;;;;;10.82;4.75;;;8.80;99.90;;;;;;5055873;28;20041;-81
2023/01/12 08:24:47;;;;;;;9.40;4.27;;;8.80;99.90;;;;;;5054221;28;20053;-81
2023/01/12 08:27:14;;;;;;;8.43;2.90;;;10.00;99.90;;;;;;5058009;28;20076;-81
2023/01/12 08:29:44;;;;;;;8.83;3.43;;;8.80;99.90;;;;;;5054542;28;20037;-81
2023/01/12 08:32:11;;;;;;;8.13;2.90;;;8.80;99.90;;;;;;5053840;28;20496;-81
2023/01/12 08:34:40;;;;;;;8.47;2.73;;;8.80;99.90;;;;;;5074354;28;20032;-81
2023/01/12 08:37:09;;;;;;;9.70;3.40;;;8.80;99.90;;;;;;5073546;28;20036;-81
2023/01/12 08:39:35;;;;;;;8.73;3.07;;;8.90;99.90;;;;;;5074695;28;20070;-82
2023/01/12 08:42:03;;;;;;;8.27;3.25;;;8.90;99.90;;;;;;5073827;28;20212;-81
2023/01/12 08:44:35;;;;;;;7.63;3.07;;;8.90;99.90;;;;;;5074919;28;20132;-81
2023/01/12 08:47:01;;;;;;;7.93;3.80;;;9.00;99.90;;;;;;5073892;28;20040;-81
2023/01/12 08:49:29;;;;;;;7.38;2.40;;;9.10;99.90;;;;;;5073033;28;20419;-82
2023/01/12 08:51:55;;;;;;;7.30;3.10;;;9.10;99.90;;;;;;5074326;28;20499;-81
2023/01/12 08:54:21;;;;;;;8.48;3.55;;;9.00;99.90;;;;;;5073747;28;20109;-81
2023/01/12 08:56:48;;;;;;;7.05;2.20;;;10.30;99.90;;;;;;5074779;28;20047;-81
2023/01/12 08:59:15;;;;;;;8.95;4.07;;;9.10;99.90;;;;;;5072889;28;20503;-81
2023/01/12 09:01:41;;;;;;;10.30;6.57;;;10.20;99.90;;;;;;5075881;28;20055;-81
2023/01/12 09:04:07;;;;;;;7.80;3.22;;;9.10;99.90;;;;;;5074751;28;20048;-81
2023/01/12 09:06:39;;;;;;;8.45;2.88;;;9.20;99.90;;;;;;5073632;28;20048;-81
2023/01/12 09:09:08;;;;;;;8.60;2.70;;;9.20;99.90;;;;;;5073845;28;20127;-81
2023/01/12 09:11:36;;;;;;;8.98;3.72;;;9.30;99.90;;;;;;5038548;28;20091;-83
2023/01/12 09:14:01;;;;;;;7.55;2.72;;;9.90;99.90;;;;;;5053415;28;20056;-82
2023/01/12 09:16:29;;;;;;;8.57;3.33;;;9.30;99.90;;;;;;5057480;28;20443;-82
2023/01/12 09:18:55;;;;;;;9.68;3.45;;;9.40;99.90;;;;;;5073772;28;20086;-82
2023/01/12 09:21:31;;;;;;;8.93;3.28;;;9.40;99.90;;;;;;5054111;28;20044;-81
2023/01/12 09:23:57;;;;;;;7.78;3.00;;;9.40;99.90;;;;;;5073146;28;20028;-81
2023/01/12 09:29:14;;;;;;;9.10;3.13;;;10.90;99.90;;;;;;5070902;28;20041;-82
2023/01/12 09:31:42;;;;;;;10.17;3.50;;;10.80;99.90;;;;;;5070021;28;20446;-81
2023/01/12 09:34:20;;;;;;;12.00;5.63;;;9.60;99.90;;;;;;5072612;28;20102;-82
2023/01/12 09:36:51;;;;;;;19.77;12.73;;;10.90;99.90;;;;;;5073373;28;20048;-81
2023/01/12 09:39:16;;;;;;;12.90;5.55;;;10.30;99.90;;;;;;5073286;28;20048;-81
2023/01/12 09:47:40;;;;;;;13.20;4.53;;;9.70;99.90;;;;;;5072185;28;20139;-81
2023/01/12 09:50:10;;;;;;;23.02;12.52;;;9.70;99.90;;;;;;5074329;28;20132;-81
2023/01/12 09:53:16;;;;;;;26.92;18.00;;;9.80;99.90;;;;;;5073459;28;20044;-81
2023/01/12 09:55:48;;;;;;;20.42;7.55;;;11.30;99.90;;;;;;5074018;28;20140;-81
2023/01/12 09:58:35;;;;;;;29.97;19.83;;;9.90;99.90;;;;;;5072500;28;20049;-82
2023/01/12 10:01:16;;;;;;;20.88;4.72;;;10.00;99.90;;;;;;5075146;28;20037;-82
2023/01/12 10:03:42;;;;;;;20.55;4.35;;;10.70;99.90;;;;;;5074173;28;20054;-82
2023/01/12 10:06:14;;;;;;;22.23;5.22;;;10.20;99.90;;;;;;5071817;28;20048;-82
2023/01/12 10:08:41;;;;;;;24.35;5.30;;;10.30;99.90;;;;;;5073960;28;20032;-82
2023/01/12 10:11:50;;;;;;;21.52;5.30;;;10.30;99.90;;;;;;5074122;28;20044;-83
2023/01/12 10:14:42;;;;;;;22.52;4.53;;;10.30;99.90;;;;;;5073507;28;20045;-82
2023/01/12 10:17:14;;;;;;;18.95;4.05;;;10.40;99.90;;;;;;5072691;28;20124;-83
2023/01/12 10:20:08;;;;;;;20.23;4.10;;;10.50;99.90;;;;;;5071225;28;20105;-83
2023/01/12 10:22:43;;;;;;;27.25;5.13;;;10.50;99.90;;;;;;5072324;28;20052;-83
2023/01/12 10:25:28;;;;;;;19.92;4.30;;;10.50;99.90;;;;;;5071890;28;20056;-84
2023/01/12 10:27:59;;;;;;;19.40;4.40;;;10.60;99.90;;;;;;5071302;28;20052;-82
2023/01/12 10:30:30;;;;;;;17.60;3.20;;;11.80;99.90;;;;;;5071915;28;20106;-82
2023/01/12 10:32:56;;;;;;;16.98;4.13;;;11.00;99.90;;;;;;5073064;28;20056;-83
2023/01/12 10:35:24;;;;;;;23.13;5.32;;;10.90;99.90;;;;;;5059086;28;20041;-84
2023/01/12 10:37:49;;;;;;;18.25;4.38;;;11.80;99.90;;;;;;5051715;28;20076;-83
2023/01/12 10:40:32;;;;;;;19.88;3.78;;;10.70;99.90;;;;;;5051759;28;20136;-82
2023/01/12 10:43:18;;;;;;;18.08;3.25;;;10.80;99.90;;;;;;5052523;28;20552;-83
2023/01/12 10:46:07;;;;;;;16.30;3.33;;;11.10;99.90;;;;;;5037445;28;20045;-83
2023/01/12 10:48:33;;;;;;;14.07;3.00;;;10.70;99.90;;;;;;5031917;28;20095;-83
2023/01/12 10:51:04;;;;;;;15.73;3.37;;;11.70;99.90;;;;;;5031470;28;20049;-82
2023/01/12 10:53:42;;;;;;;17.70;3.00;;;10.80;99.90;;;;;;5032744;28;20045;-83
2023/01/12 10:56:19;;;;;;;15.07;3.03;;;10.70;99.90;;;;;;5032002;28;20045;-83
2023/01/12 10:58:52;;;;;;;14.65;2.92;;;10.80;99.90;;;;;;5031550;28;20511;-83
2023/01/12 11:01:19;;;;;;;14.38;2.95;;;10.90;99.90;;;;;;5031590;28;20428;-82
2023/01/12 11:03:45;;;;;;;10.88;2.22;;;12.20;99.90;;;;;;5031139;28;20073;-84
2023/01/12 11:06:29;;;;;;;13.25;2.75;;;10.70;99.90;;;;;;5039026;28;20065;-83
2023/01/12 11:08:56;;;;;;;10.23;2.10;;;10.70;99.90;;;;;;5069671;28;20127;-82
2023/01/12 11:11:29;;;;;;;12.15;2.75;;;10.60;99.90;;;;;;5069362;28;20040;-84
2023/01/12 11:13:57;;;;;;;12.50;2.50;;;10.60;99.90;;;;;;5071057;28;20128;-82
2023/01/12 11:16:37;;;;;;;13.05;3.00;;;10.90;99.90;;;;;;5071137;28;20128;-83
2023/01/12 11:19:18;;;;;;;14.63;3.30;;;11.30;99.90;;;;;;5073203;28;20155;-81
2023/01/12 11:22:05;;;;;;;14.48;3.20;;;10.70;99.90;;;;;;5071830;28;20076;-83
2023/01/12 11:25:10;;;;;;;19.67;4.05;;;10.70;99.90;;;;;;5070322;28;20519;-82
2023/01/12 11:27:43;;;;;;;16.52;3.15;;;10.80;99.90;;;;;;5032120;28;20129;-83
2023/01/12 11:30:32;;;;;;;17.30;3.30;;;11.00;99.90;;;;;;5074522;28;20049;-83
2023/01/12 11:33:11;;;;;;;20.23;3.72;;;10.80;99.90;;;;;;5071360;28;20523;-83
2023/01/12 11:35:43;;;;;;;20.92;4.75;;;11.70;99.90;;;;;;5071162;28;20040;-82
2023/01/12 11:38:29;;;;;;;18.20;3.50;;;10.80;99.90;;;;;;5075048;28;20070;-83
2023/01/12 11:40:57;;;;;;;21.08;3.40;;;10.80;99.90;;;;;;5040272;28;20119;-82
2023/01/12 11:43:54;;;;;;;17.45;3.25;;;12.00;99.90;;;;;;5034056;28;20088;-84
2023/01/12 11:46:41;;;;;;;19.33;3.92;;;10.60;99.90;;;;;;5030710;28;20045;-84
2023/01/12 11:49:26;;;;;;;17.83;3.33;;;10.80;99.90;;;;;;5033060;28;20042;-84
2023/01/12 11:51:57;;;;;;;23.98;8.18;;;10.90;99.90;;;;;;5029579;28;20448;-83
2023/01/12 11:54:24;;;;;;;31.38;15.38;;;10.90;99.90;;;;;;5026279;28;20052;-83
2023/01/12 11:56:59;;;;;;;17.88;4.13;;;11.90;99.90;;;;;;5031454;28;20132;-84
2023/01/12 11:59:58;;;;;;;20.98;4.68;;;10.90;99.90;;;;;;5031332;28;20520;-84
2023/01/12 12:02:40;;;;;;;23.15;8.93;;;11.00;99.90;;;;;;5030974;28;20060;-83
2023/01/12 12:05:33;;;;;;;25.35;6.53;;;11.00;99.90;;;;;;5031048;28;20068;-85
2023/01/12 12:08:08;;;;;;;20.65;5.00;;;11.00;99.90;;;;;;5030902;28;20045;-84
2023/01/12 12:10:58;;;;;;;20.70;5.28;;;11.00;99.90;;;;;;5032680;28;20371;-85
2023/01/12 12:13:27;;;;;;;18.83;4.55;;;11.00;99.90;;;;;;5030457;28;20041;-84
2023/01/12 12:16:04;;;;;;;19.02;3.40;;;11.00;99.90;;;;;;5031005;28;20505;-85
2023/01/12 12:19:02;;;;;;;17.77;3.47;;;11.10;99.90;;;;;;5030622;28;20056;-84
2023/01/12 12:21:35;;;;;;;19.90;4.28;;;11.10;99.90;;;;;;5018963;28;20441;-85
2023/01/12 12:24:19;;;;;;;20.05;4.05;;;11.90;99.90;;;;;;5031044;28;20374;-85
2023/01/12 12:26:54;;;;;;;15.73;3.47;;;11.00;99.90;;;;;;5031218;28;20049;-84
2023/01/12 12:29:41;;;;;;;20.60;5.00;;;11.70;99.90;;;;;;5030740;28;20057;-84
2023/01/12 12:32:17;;;;;;;25.05;5.10;;;11.00;99.90;;;;;;5065486;22;20049;-85
2023/01/12 12:35:02;;;;;;;22.40;5.30;;;11.00;99.90;;;;;;5074423;28;20102;-84
2023/01/12 12:37:42;;;;;;;24.02;5.03;;;10.90;99.90;;;;;;5057503;28;20078;-84
2023/01/12 12:45:15;;;;;;;23.10;5.70;;;10.90;99.90;;;;;;5075126;28;20519;-84
2023/01/12 12:46:44;;;;;;;21.77;5.17;;;11.80;99.90;;;;;;5057102;28;20076;-84
2023/01/12 12:49:14;;;;;;;19.70;4.93;;;10.80;99.90;;;;;;5095360;22;20103;-84
2023/01/12 12:51:41;;;;;;;20.45;4.18;;;10.80;99.90;;;;;;5077691;28;20101;-84
2023/01/12 12:54:16;;;;;;;19.17;4.13;;;10.80;99.90;;;;;;5095522;28;20035;-84
2023/01/12 12:56:46;;;;;;;21.80;4.53;;;10.80;99.90;;;;;;5077828;28;20066;-84
2023/01/12 12:59:53;;;;;;;20.90;5.07;;;10.80;99.90;;;;;;5094674;28;20048;-84
2023/01/12 13:02:54;;;;;;;25.35;5.57;;;10.90;99.90;;;;;;5054486;28;20051;-84
2023/01/12 13:05:40;;;;;;;25.27;4.97;;;11.00;99.90;;;;;;5078905;28;20062;-84
2023/01/12 13:08:33;;;;;;;23.70;5.63;;;10.90;99.90;;;;;;5095547;28;20040;-84
2023/01/12 13:10:58;;;;;;;20.10;4.45;;;10.90;99.90;;;;;;5100365;28;20052;-83
2023/01/12 13:13:50;;;;;;;22.90;4.68;;;12.30;99.90;;;;;;5072711;28;20044;-83
2023/01/12 13:20:18;;;;;;;22.07;4.33;;;10.50;99.90;;;;;;5095535;28;20031;-84
2023/01/12 13:22:50;;;;;;;19.87;4.40;;;11.00;99.90;;;;;;5076504;28;20076;-85
2023/01/12 13:25:19;;;;;;;20.63;3.80;;;12.20;99.90;;;;;;5076956;28;20044;-84
2023/01/12 13:28:00;;;;;;;16.17;4.10;;;11.00;99.90;;;;;;5078085;28;20117;-83
2023/01/12 13:30:25;;;;;;;15.23;3.87;;;11.10;99.90;;;;;;5094289;28;20542;-84
2023/01/12 13:33:34;;;;;;;18.93;3.77;;;12.30;99.90;;;;;;5077466;28;20127;-84
2023/01/12 13:36:07;;;;;;;17.63;3.83;;;10.90;99.90;;;;;;5076785;28;20543;-84
2023/01/12 13:38:38;;;;;;;21.65;4.78;;;12.60;99.90;;;;;;5075598;28;20483;-84
2023/01/12 13:41:12;;;;;;;13.20;3.80;;;12.10;99.90;;;;;;5095001;28;20036;-84
2023/01/12 13:43:47;;;;;;;17.20;3.67;;;11.90;99.90;;;;;;5094070;28;20040;-84
2023/01/12 13:46:28;;;;;;;17.77;3.73;;;11.30;99.90;;;;;;5094436;28;20040;-84
2023/01/12 13:48:54;;;;;;;15.37;3.27;;;11.70;99.90;;;;;;5094210;28;20052;-85
2023/01/12 13:51:28;;;;;;;15.17;3.30;;;11.80;99.90;;;;;;5093246;28;20479;-84
2023/01/12 13:54:06;;;;;;;13.40;3.00;;;11.70;99.90;;;;;;5094336;28;20491;-84
2023/01/12 13:56:32;;;;;;;15.33;3.73;;;10.80;99.90;;;;;;5075725;28;20526;-84
2023/01/12 13:59:00;;;;;;;16.03;4.60;;;11.10;99.90;;;;;;5075476;28;20044;-84
2023/01/12 14:01:39;;;;;;;14.20;4.63;;;10.80;99.90;;;;;;5075989;28;20103;-84
2023/01/12 14:04:16;;;;;;;15.83;5.30;;;10.80;99.90;;;;;;5076092;28;20117;-84
2023/01/12 14:06:58;;;;;;;13.32;4.35;;;10.80;99.90;;;;;;5075215;28;20087;-84
2023/01/12 14:10:03;;;;;;;12.98;3.83;;;10.70;99.90;;;;;;5075960;28;20063;-84
2023/01/12 14:13:08;;;;;;;12.93;3.60;;;10.70;99.90;;;;;;5074718;28;20052;-84
2023/01/12 14:18:25;;;;;;;13.07;3.80;;;11.20;99.90;;;;;;5093605;28;20472;-84